Time;durP1;ratioP1;P1;durP2;ratioP2;P2;SDS_P1;SDS_P2;PMS_P1;PMS_P2;Temp;Humidity;BMP_temperature;BMP_pressure;BME280_temperature;BME280_humidity;BME280_pressure;Samples;Min_cycle;Max_cycle;Signal;HPM_P1;HPM_P2
2023/01/23 00:00:13;;;;;;;25.20;17.30;;;;;;;2.40;100.00;102719.25;5002521;28;20164;-79
2023/01/23 01:03:36;;;;;;;27.92;17.70;;;;;;;2.28;100.00;102740.78;5019971;28;20452;-78
2023/01/23 01:33:25;;;;;;;27.08;17.60;;;;;;;2.26;100.00;102755.50;5015835;28;20037;-78
2023/01/23 02:41:48;;;;;;;27.00;18.23;;;;;;;2.38;100.00;102782.44;5003109;28;20072;-78
2023/01/23 03:10:00;;;;;;;;;;;;;;;2.33;99.94;102808.41;5001573;28;20049;-78
2023/01/23 03:25:45;;;;;;;28.30;19.13;;;;;;;2.28;100.00;102817.88;4995954;28;20613;-76
2023/01/23 03:53:25;;;;;;;27.83;18.48;;;;;;;2.44;99.65;102843.19;5007294;28;20583;-78
2023/01/23 04:05:08;;;;;;;32.80;19.75;;;;;;;2.23;99.89;102858.53;5007769;28;20142;-77
2023/01/23 04:29:28;;;;;;;27.20;19.02;;;;;;;2.34;99.96;102869.06;5020774;28;20065;-78
2023/01/23 04:31:56;;;;;;;33.15;20.05;;;;;;;2.36;99.78;102870.81;4998680;28;20049;-76
2023/01/23 06:13:10;;;;;;;31.75;22.45;;;;;;;2.26;99.79;102920.97;5010385;28;20528;-76
2023/01/23 06:37:40;;;;;;;28.58;20.05;;;;;;;2.36;99.64;102937.53;5003405;28;20201;-76
2023/01/23 06:40:12;;;;;;;29.75;20.98;;;;;;;2.29;99.08;102936.56;5003056;28;20585;-76
2023/01/23 06:51:28;;;;;;;31.45;21.08;;;;;;;2.29;99.48;102942.66;5012952;28;20041;-76
2023/01/23 06:58:15;;;;;;;30.42;21.15;;;;;;;2.26;99.72;102959.94;5023105;28;20124;-75
2023/01/23 07:00:43;;;;;;;29.65;20.75;;;;;;;2.34;99.58;102954.81;5032078;28;20575;-75
2023/01/23 07:03:16;;;;;;;29.75;21.13;;;;;;;2.36;99.65;102948.81;5014640;28;20549;-75
2023/01/23 07:05:44;;;;;;;28.88;21.05;;;;;;;2.29;99.49;102947.84;5008644;28;20050;-76
2023/01/23 07:08:11;;;;;;;34.30;21.65;;;;;;;2.19;99.24;102964.19;5014100;28;20093;-75
2023/01/23 07:10:39;;;;;;;28.33;20.38;;;;;;;2.18;99.42;102956.38;5003761;28;20133;-76
2023/01/23 07:13:08;;;;;;;30.33;21.25;;;;;;;2.26;99.95;102960.81;4995146;28;20459;-75
2023/01/23 07:15:36;;;;;;;30.95;21.60;;;;;;;2.22;99.56;102971.16;4995761;28;20052;-75
2023/01/23 07:18:08;;;;;;;33.30;22.15;;;;;;;2.10;99.02;102968.38;5008890;28;20049;-75
2023/01/23 07:20:37;;;;;;;32.80;23.08;;;;;;;2.09;99.65;102970.13;5016185;28;20504;-74
2023/01/23 07:23:05;;;;;;;35.03;23.77;;;;;;;2.15;99.59;102979.72;4991798;28;20072;-75
2023/01/23 07:25:32;;;;;;;32.55;22.05;;;;;;;2.09;99.47;102979.63;5004471;28;20053;-75
2023/01/23 07:28:00;;;;;;;35.78;23.20;;;;;;;2.05;99.96;102986.50;5012421;28;20152;-76
2023/01/23 07:30:28;;;;;;;32.20;22.90;;;;;;;2.07;100.00;102989.13;5004124;28;20549;-75
2023/01/23 07:32:57;;;;;;;34.10;22.08;;;;;;;2.14;99.95;102988.38;5003682;28;20060;-76
2023/01/23 07:35:24;;;;;;;34.53;21.90;;;;;;;2.23;99.79;102985.88;4996544;28;20054;-75
2023/01/23 07:37:52;;;;;;;31.45;22.27;;;;;;;2.23;99.64;102991.09;4988292;28;20536;-76
2023/01/23 07:40:19;;;;;;;35.45;23.27;;;;;;;2.22;99.62;102991.94;5000284;28;20142;-75
2023/01/23 07:42:51;;;;;;;36.45;23.90;;;;;;;2.15;99.32;102983.19;5008017;28;20054;-76
2023/01/23 07:45:19;;;;;;;33.28;21.83;;;;;;;2.14;99.81;102978.84;5011823;28;20050;-75
2023/01/23 07:47:46;;;;;;;33.10;23.10;;;;;;;2.16;99.46;102976.25;4997612;28;20095;-76
2023/01/23 07:50:14;;;;;;;34.42;22.38;;;;;;;2.16;99.58;102982.34;4997476;28;20111;-77
2023/01/23 07:52:42;;;;;;;33.20;22.90;;;;;;;2.09;99.29;102974.44;4988673;28;20052;-76
2023/01/23 07:55:09;;;;;;;38.38;23.50;;;;;;;2.05;99.41;102981.31;5023956;28;20049;-75
2023/01/23 07:57:37;;;;;;;35.75;23.10;;;;;;;2.04;99.78;102984.78;4996903;28;20170;-75
2023/01/23 08:00:04;;;;;;;33.33;23.02;;;;;;;2.16;100.00;102984.94;5014168;28;20049;-75
2023/01/23 08:02:32;;;;;;;33.10;22.80;;;;;;;2.24;99.92;102991.09;5017154;28;20417;-76
2023/01/23 08:05:00;;;;;;;36.83;23.35;;;;;;;2.27;99.30;102985.94;5015242;28;20064;-76
2023/01/23 08:07:28;;;;;;;32.55;22.65;;;;;;;2.23;99.07;102983.28;4997306;28;20054;-76
2023/01/23 08:09:55;;;;;;;36.65;24.55;;;;;;;2.28;99.62;102989.41;4983210;28;20065;-76
2023/01/23 08:12:23;;;;;;;38.20;23.63;;;;;;;2.27;99.41;102985.09;4995201;28;20049;-75
2023/01/23 08:14:51;;;;;;;30.13;22.50;;;;;;;2.29;99.58;102972.97;5009644;28;21275;-75
2023/01/23 08:17:18;;;;;;;34.70;23.52;;;;;;;2.26;99.47;102989.41;5002245;28;20151;-76
2023/01/23 08:19:46;;;;;;;34.40;23.38;;;;;;;2.23;99.48;102984.16;4984779;28;20065;-76
2023/01/23 08:22:13;;;;;;;34.00;22.65;;;;;;;2.28;99.53;102990.28;4989447;28;21032;-75
2023/01/23 08:24:41;;;;;;;35.50;23.15;;;;;;;2.25;99.22;102991.97;4990893;28;20054;-75
2023/01/23 08:27:08;;;;;;;31.25;22.35;;;;;;;2.28;99.33;103005.88;5016173;28;20045;-75
2023/01/23 08:29:36;;;;;;;33.78;23.10;;;;;;;2.30;98.98;103000.72;4998227;28;20527;-75
2023/01/23 08:32:03;;;;;;;36.42;24.00;;;;;;;2.33;99.08;103000.75;5019261;28;20120;-75
2023/01/23 08:34:31;;;;;;;32.00;22.15;;;;;;;2.37;98.76;103012.06;5013526;28;20521;-76
2023/01/23 08:36:59;;;;;;;33.50;22.88;;;;;;;2.39;98.72;103011.25;4973133;28;20050;-75
2023/01/23 08:39:26;;;;;;;33.15;21.88;;;;;;;2.41;98.37;103021.66;5014017;28;20067;-74
2023/01/23 08:41:54;;;;;;;32.90;22.50;;;;;;;2.44;98.87;103012.19;4993392;28;20052;-74
2023/01/23 08:44:23;;;;;;;35.78;24.20;;;;;;;2.44;98.51;103017.38;5006720;28;20046;-75
2023/01/23 08:46:50;;;;;;;33.70;21.33;;;;;;;2.43;97.90;103027.72;5008700;28;20050;-75
2023/01/23 08:49:19;;;;;;;31.02;21.73;;;;;;;2.38;98.04;103032.88;4995940;28;20509;-76
2023/01/23 08:51:46;;;;;;;36.95;23.05;;;;;;;2.40;97.89;103041.59;4981309;28;20054;-75
2023/01/23 08:54:14;;;;;;;32.50;22.13;;;;;;;2.40;98.12;103038.09;4983847;28;20116;-74
2023/01/23 08:56:41;;;;;;;32.30;22.77;;;;;;;2.40;97.45;103044.19;4997307;28;20100;-75
2023/01/23 08:59:09;;;;;;;32.60;21.92;;;;;;;2.37;97.46;103054.53;5010496;28;20057;-74
2023/01/23 09:02:27;;;;;;;34.22;23.05;;;;;;;2.29;97.66;103056.13;4994662;28;20409;-75
2023/01/23 09:05:18;;;;;;;31.10;21.02;;;;;;;2.42;98.07;103054.59;5002074;28;20041;-75
2023/01/23 09:07:46;;;;;;;33.05;21.83;;;;;;;2.40;97.38;103058.91;5017644;28;20526;-75
2023/01/23 09:10:14;;;;;;;35.13;21.27;;;;;;;2.43;98.03;103059.84;5003438;28;20045;-75
2023/01/23 09:12:42;;;;;;;31.20;21.73;;;;;;;2.50;97.95;103071.16;4997637;28;20291;-75
2023/01/23 09:15:10;;;;;;;33.85;22.15;;;;;;;2.43;97.80;103070.22;4997205;28;20120;-75
2023/01/23 09:17:37;;;;;;;32.42;22.23;;;;;;;2.43;98.08;103079.72;4999464;28;20057;-74
2023/01/23 09:20:06;;;;;;;30.70;22.48;;;;;;;2.43;97.57;103082.31;5000342;28;20061;-75
2023/01/23 09:22:33;;;;;;;33.30;20.80;;;;;;;2.47;97.81;103091.91;4992220;28;20127;-76
2023/01/23 09:25:00;;;;;;;31.45;20.95;;;;;;;2.53;98.11;103085.09;5005629;28;20062;-75
2023/01/23 09:27:28;;;;;;;32.90;23.00;;;;;;;2.58;97.83;103087.75;4994766;28;20062;-75
2023/01/23 09:29:55;;;;;;;30.88;22.65;;;;;;;2.64;97.38;103086.97;5006667;28;20108;-76
2023/01/23 09:32:23;;;;;;;31.00;22.42;;;;;;;2.68;97.26;103088.75;5002538;28;20050;-75
2023/01/23 09:34:50;;;;;;;34.60;22.23;;;;;;;2.68;96.59;103087.03;5014483;28;20440;-75
2023/01/23 09:37:18;;;;;;;31.02;22.13;;;;;;;2.68;96.98;103092.22;4995658;28;20131;-75
2023/01/23 09:39:46;;;;;;;32.13;22.27;;;;;;;2.69;96.74;103086.16;4996695;28;20057;-76
2023/01/23 09:42:20;;;;;;;34.78;23.80;;;;;;;2.68;96.85;103083.53;4988104;28;20438;-75
2023/01/23 09:44:50;;;;;;;34.25;23.25;;;;;;;2.71;97.17;103091.41;4991792;28;20100;-76
2023/01/23 09:47:37;;;;;;;34.47;22.38;;;;;;;2.71;96.69;103088.81;4996570;28;20050;-75
2023/01/23 09:50:07;;;;;;;37.17;22.65;;;;;;;2.74;96.72;103087.09;5000099;28;20062;-76
2023/01/23 09:52:39;;;;;;;32.10;21.77;;;;;;;2.75;96.41;103088.00;5009627;28;20069;-75
2023/01/23 09:55:23;;;;;;;33.35;22.90;;;;;;;2.64;96.21;103097.34;4989382;28;20050;-75
2023/01/23 09:57:54;;;;;;;29.25;21.38;;;;;;;2.60;96.65;103091.25;5003174;28;20213;-76
2023/01/23 10:00:26;;;;;;;33.92;21.95;;;;;;;2.65;97.12;103089.56;5020190;28;20122;-76
2023/01/23 10:02:55;;;;;;;31.42;21.83;;;;;;;2.68;97.50;103102.63;4984558;28;20046;-75
2023/01/23 10:05:32;;;;;;;33.10;21.42;;;;;;;2.73;97.01;103102.69;4983475;28;20057;-76
2023/01/23 10:08:26;;;;;;;30.92;21.25;;;;;;;2.83;97.44;103103.66;4991526;28;20132;-76
2023/01/23 10:11:07;;;;;;;29.45;21.30;;;;;;;2.82;96.81;103099.34;4966348;28;20104;-75
2023/01/23 10:13:47;;;;;;;32.67;22.17;;;;;;;2.78;96.14;103099.28;4979916;28;20350;-75
2023/01/23 10:16:40;;;;;;;28.75;21.92;;;;;;;2.83;96.79;103106.28;5001151;28;20049;-75
2023/01/23 10:19:23;;;;;;;29.10;20.80;;;;;;;2.84;96.96;103101.13;4999512;28;20413;-75
2023/01/23 10:21:58;;;;;;;27.73;20.40;;;;;;;2.87;96.82;103103.72;5020426;28;20057;-76
2023/01/23 10:24:48;;;;;;;31.05;20.88;;;;;;;2.94;96.05;103112.50;5004107;28;20142;-76
2023/01/23 10:27:17;;;;;;;30.20;21.00;;;;;;;2.91;96.53;103104.66;5020832;28;20277;-75
2023/01/23 10:30:01;;;;;;;30.95;22.05;;;;;;;2.89;96.08;103112.44;4985916;28;20106;-76
2023/01/23 10:32:30;;;;;;;32.17;22.98;;;;;;;2.91;96.37;103110.72;4977571;28;20119;-75
2023/01/23 10:35:11;;;;;;;29.40;20.05;;;;;;;2.91;95.80;103108.13;5011617;28;20076;-75
2023/01/23 10:37:53;;;;;;;29.80;21.60;;;;;;;2.91;96.68;103115.06;5011191;28;20042;-75
2023/01/23 10:43:13;;;;;;;34.33;22.35;;;;;;;3.08;96.54;103112.69;4997860;28;20042;-76
2023/01/23 10:45:42;;;;;;;33.83;22.52;;;;;;;3.10;96.28;103113.56;5019196;28;20088;-75
2023/01/23 10:48:36;;;;;;;35.90;22.20;;;;;;;3.11;95.53;103108.38;5001283;28;20092;-76
2023/01/23 10:51:30;;;;;;;32.25;21.83;;;;;;;3.10;95.17;103108.34;4987630;28;20049;-75
2023/01/23 10:54:17;;;;;;;27.50;19.30;;;;;;;3.10;95.50;103110.94;4991067;28;20580;-75
2023/01/23 10:57:17;;;;;;;30.15;21.67;;;;;;;3.10;95.37;103114.41;4980338;28;20422;-76
2023/01/23 11:00:19;;;;;;;30.65;20.98;;;;;;;3.01;95.43;103109.97;5015099;28;20519;-75
2023/01/23 11:02:47;;;;;;;30.38;21.30;;;;;;;3.00;95.79;103112.56;4993199;28;20050;-75
2023/01/23 11:05:40;;;;;;;30.40;20.83;;;;;;;3.03;96.05;103110.88;4993365;28;20069;-76
2023/01/23 11:08:36;;;;;;;30.88;21.58;;;;;;;3.01;96.19;103111.72;4987947;28;20054;-76
2023/01/23 11:11:13;;;;;;;31.13;21.20;;;;;;;2.98;95.60;103106.50;5018181;28;20549;-76
2023/01/23 11:13:43;;;;;;;33.03;22.20;;;;;;;3.00;95.97;103105.63;4994249;28;20046;-75
2023/01/23 11:16:19;;;;;;;28.25;21.33;;;;;;;3.08;96.15;103107.47;4977529;28;20084;-75
2023/01/23 11:19:04;;;;;;;31.55;21.83;;;;;;;3.12;96.01;103107.53;5000725;28;20139;-76
2023/01/23 11:21:56;;;;;;;29.38;21.58;;;;;;;3.07;95.81;103105.72;4979467;28;20419;-76
2023/01/23 11:24:23;;;;;;;30.15;20.50;;;;;;;3.06;95.89;103104.81;4998365;28;20064;-76
2023/01/23 11:27:16;;;;;;;31.35;22.42;;;;;;;3.07;96.37;103101.41;5010430;28;20082;-75
2023/01/23 11:29:57;;;;;;;28.55;20.25;;;;;;;3.02;95.71;103095.25;4991200;28;20079;-75
2023/01/23 11:32:25;;;;;;;28.60;19.67;;;;;;;2.99;95.58;103093.47;4977552;28;20109;-75
2023/01/23 11:34:59;;;;;;;32.08;22.65;;;;;;;2.98;95.43;103096.94;4986864;28;20062;-75
2023/01/23 11:37:31;;;;;;;26.77;18.63;;;;;;;3.04;95.36;103101.34;5008393;28;20053;-76
2023/01/23 11:40:18;;;;;;;29.15;20.67;;;;;;;3.11;95.57;103094.47;4979031;28;20054;-75
2023/01/23 11:42:47;;;;;;;29.63;20.98;;;;;;;3.17;95.38;103097.16;4993562;28;20050;-75
2023/01/23 11:45:42;;;;;;;29.73;21.02;;;;;;;3.16;95.65;103085.88;4985642;28;20096;-75
2023/01/23 11:48:19;;;;;;;31.63;21.38;;;;;;;3.21;94.97;103088.53;4992724;28;20163;-75
2023/01/23 11:50:54;;;;;;;27.85;19.10;;;;;;;3.16;95.07;103085.00;4992037;28;20034;-75
2023/01/23 11:53:33;;;;;;;29.50;20.75;;;;;;;3.04;94.62;103081.41;4993507;28;20640;-75
2023/01/23 11:56:44;;;;;;;26.60;20.55;;;;;;;3.04;95.76;103088.34;4983759;28;20081;-75
2023/01/23 11:59:21;;;;;;;29.08;18.60;;;;;;;3.04;95.55;103081.41;4984759;28;20050;-75
2023/01/23 12:01:54;;;;;;;30.45;21.15;;;;;;;2.97;95.04;103086.50;5007989;28;20053;-75
2023/01/23 12:04:43;;;;;;;27.25;19.15;;;;;;;2.96;94.98;103085.63;4985435;28;20354;-76
2023/01/23 12:07:17;;;;;;;25.75;18.13;;;;;;;2.92;95.24;103081.25;4994106;28;20054;-76
2023/01/23 12:09:47;;;;;;;26.52;18.67;;;;;;;2.98;96.17;103063.13;5015011;28;20050;-75
2023/01/23 12:12:18;;;;;;;26.67;18.38;;;;;;;3.07;95.88;103058.88;4998222;28;20050;-76
2023/01/23 12:14:58;;;;;;;23.98;16.73;;;;;;;3.04;94.96;103064.91;4978332;28;20042;-75
2023/01/23 12:17:32;;;;;;;25.50;17.92;;;;;;;2.97;95.37;103066.59;4963242;28;20046;-75
2023/01/23 12:20:37;;;;;;;25.17;17.33;;;;;;;3.02;95.64;103061.44;4978363;28;20056;-75
2023/01/23 12:23:15;;;;;;;22.90;16.05;;;;;;;3.13;95.92;103057.22;4989291;28;20061;-75
2023/01/23 12:26:06;;;;;;;25.13;17.15;;;;;;;3.19;95.53;103059.00;5019464;28;20053;-75
2023/01/23 12:28:55;;;;;;;22.50;15.80;;;;;;;3.26;96.13;103058.22;4990667;28;20084;-75
2023/01/23 12:32:02;;;;;;;25.52;16.60;;;;;;;3.28;95.37;103056.50;5012355;28;20111;-75
2023/01/23 12:34:58;;;;;;;22.33;15.77;;;;;;;3.31;94.22;103053.94;5008368;28;20085;-75
2023/01/23 12:38:02;;;;;;;24.48;14.77;;;;;;;3.20;92.55;103060.75;4988681;28;20037;-75
2023/01/23 12:40:49;;;;;;;25.13;15.18;;;;;;;3.17;92.93;103056.38;5003516;28;20046;-76
2023/01/23 12:43:18;;;;;;;23.80;15.57;;;;;;;3.15;94.01;103055.50;5017580;28;20057;-75
2023/01/23 12:45:51;;;;;;;20.73;15.20;;;;;;;3.24;94.18;103054.72;4986900;28;20667;-75
2023/01/23 12:48:27;;;;;;;21.70;15.20;;;;;;;3.28;94.03;103051.28;4992655;28;20128;-75
2023/01/23 12:51:05;;;;;;;22.52;15.20;;;;;;;3.29;94.92;103056.53;4993646;28;20386;-75
2023/01/23 12:53:41;;;;;;;27.63;15.20;;;;;;;3.30;94.79;103045.25;5013184;28;20045;-75
2023/01/23 12:56:22;;;;;;;21.40;15.07;;;;;;;3.34;94.77;103042.69;4991340;28;20049;-75
2023/01/23 12:58:52;;;;;;;24.27;15.85;;;;;;;3.32;93.52;103047.84;4984870;28;20064;-75
2023/01/23 13:01:24;;;;;;;26.15;16.98;;;;;;;3.33;92.65;103052.19;5005973;28;20546;-75
2023/01/23 13:03:52;;;;;;;23.80;15.50;;;;;;;3.26;92.51;103051.28;4978929;28;20064;-76
2023/01/23 13:06:38;;;;;;;20.83;15.15;;;;;;;3.25;92.57;103048.66;4993817;28;20057;-74
2023/01/23 13:09:32;;;;;;;23.88;15.93;;;;;;;3.29;93.08;103055.66;5007752;28;20072;-75
2023/01/23 13:12:20;;;;;;;19.50;13.73;;;;;;;3.28;92.47;103057.34;4980910;28;20054;-75
2023/01/23 13:15:07;;;;;;;23.02;14.98;;;;;;;3.28;93.05;103054.75;4983785;28;20053;-76
2023/01/23 13:17:45;;;;;;;23.23;15.13;;;;;;;3.38;93.79;103060.97;4992523;28;20046;-75
2023/01/23 13:23:25;;;;;;;22.40;15.57;;;;;;;3.36;93.34;103062.66;5012415;28;20046;-74
2023/01/23 13:26:25;;;;;;;20.98;13.57;;;;;;;3.44;93.66;103061.00;4996319;28;20046;-74
2023/01/23 13:28:54;;;;;;;21.17;14.13;;;;;;;3.41;92.59;103066.16;4987481;28;20090;-74
2023/01/23 13:31:49;;;;;;;20.95;14.02;;;;;;;3.39;93.28;103067.91;5019608;28;20119;-74
2023/01/23 13:34:17;;;;;;;21.95;14.80;;;;;;;3.39;93.04;103064.44;4986369;28;20046;-74
2023/01/23 13:36:46;;;;;;;20.85;13.63;;;;;;;3.39;93.41;103061.81;4997156;28;20044;-75
2023/01/23 13:39:16;;;;;;;23.30;14.27;;;;;;;3.36;93.89;103062.66;4990250;28;20392;-74
2023/01/23 13:41:49;;;;;;;19.52;14.38;;;;;;;3.40;94.03;103058.34;5007862;28;20058;-74
2023/01/23 13:44:30;;;;;;;21.13;14.15;;;;;;;3.36;93.57;103056.56;4986139;28;20108;-76
2023/01/23 13:50:19;;;;;;;22.77;14.50;;;;;;;3.32;93.50;103054.78;4908273;29;20536;-75
2023/01/23 13:59:28;;;;;;;22.23;13.20;;;;;;;3.39;94.72;103056.63;4796494;29;20054;-74
2023/01/23 14:05:21;;;;;;;;;;;;;;;3.46;94.66;103047.97;4758989;30;20515;-76
2023/01/23 14:08:05;;;;;;;21.75;14.05;;;;;;;3.45;94.58;103061.88;4722118;30;20420;-75
2023/01/23 14:10:33;;;;;;;18.73;12.27;;;;;;;3.52;94.11;103058.47;4715471;30;20529;-76
2023/01/23 14:13:23;;;;;;;19.30;13.70;;;;;;;3.60;94.01;103067.22;4722859;30;20669;-76
2023/01/23 14:16:10;;;;;;;21.07;13.37;;;;;;;3.60;94.10;103067.22;4710682;30;20060;-75
2023/01/23 14:18:53;;;;;;;19.00;12.35;;;;;;;3.53;92.14;103076.72;4744633;30;20071;-76
2023/01/23 14:21:40;;;;;;;18.75;12.75;;;;;;;3.57;93.51;103068.94;4738424;30;20558;-76
2023/01/23 14:24:23;;;;;;;19.42;13.02;;;;;;;3.63;93.30;103069.84;4770059;29;20426;-75
2023/01/23 14:26:59;;;;;;;21.40;14.35;;;;;;;3.52;92.99;103068.91;4848976;29;20524;-75
2023/01/23 14:29:31;;;;;;;17.40;12.75;;;;;;;3.52;93.20;103071.50;4910164;29;20055;-76
2023/01/23 14:31:58;;;;;;;17.20;11.77;;;;;;;3.44;92.31;103076.63;4938724;28;20073;-76
2023/01/23 14:34:26;;;;;;;18.65;12.98;;;;;;;3.40;93.02;103082.66;4951810;28;20043;-75
2023/01/23 14:37:02;;;;;;;19.13;13.18;;;;;;;3.42;93.89;103080.06;4933756;28;20051;-74
2023/01/23 14:39:32;;;;;;;17.13;12.35;;;;;;;3.31;93.41;103085.16;4940488;28;20170;-75
2023/01/23 14:50:49;;;;;;;18.27;12.93;;;;;;;3.38;95.01;103080.88;5013374;28;20048;-75
2023/01/23 14:57:31;;;;;;;14.55;10.68;;;;;;;3.26;93.60;103087.72;5006573;28;20060;-76
2023/01/23 14:59:58;;;;;;;18.85;11.82;;;;;;;3.25;93.34;103088.59;4969106;28;20453;-75
2023/01/23 20:33:13;;;;;;;18.58;13.25;;;;;;;2.28;95.13;103207.75;5022277;23;20119;-66
2023/01/23 21:24:19;;;;;;;19.40;13.48;;;;;;;2.16;94.75;103237.00;4989023;28;20058;-64
2023/01/23 21:52:40;;;;;;;20.77;14.15;;;;;;;2.16;94.72;103230.91;4992164;28;21404;-63
2023/01/23 22:17:11;;;;;;;20.88;13.35;;;;;;;1.86;95.29;103220.88;4996031;28;20104;-64
2023/01/23 22:23:50;;;;;;;19.70;13.60;;;;;;;1.95;95.41;103234.88;4991961;28;20168;-64
2023/01/23 22:49:20;;;;;;;21.67;14.23;;;;;;;1.93;95.46;103240.88;4992485;28;20049;-63
2023/01/23 22:56:12;;;;;;;21.63;14.93;;;;;;;2.05;95.15;103235.94;4984764;28;20049;-63
2023/01/23 22:59:30;;;;;;;21.73;14.52;;;;;;;2.06;95.22;103231.59;4980528;28;20137;-62
2023/01/23 23:11:51;;;;;;;21.20;14.10;;;;;;;1.99;95.05;103244.50;4996498;28;20485;-63
